First Mesa, Arizona
Current Conditions -  °F | °C
As of 6:56 PM on Friday 24 Oct 2014 (Local Time) from KINW Reporting Station
Clear Clear  
Wind Chill: 63°   Ceiling: Unl
Heat Index: 63°   Visibility: 10mi
Dew Point: 34°   Wind: 0mph
Humidity: 34%   Direction: NA
Pressure: 30.2"   Gusts: NA
Location:  35.9347°N, 110.453°W
Report Text: KINW 250156Z AUTO 00000KT 10SM CLR 17/01 A3020 RMK AO2 SLP193 T01720011
Loading
Personal Weather Stations






























Interactive Weather Map
Tropical Storm Tracking
New forecast layout! Learn more

10-Day Weather Forecast

Advertisements
Track Severe Weather on mobile